Terminal Aerodrome Forecast
Issued by NWS

Home | Current Version | Previous Version | Graphics & Text | Print | Product List | Glossary On
Versions: 1 2 3 4 5 6 7 8 9 10 11 12 13 14 15 16 17 18 19 20 21 22 23 24 25 26 27 28 29 30 31 32 33
000
FTUS43 KLOT 210600 AAA
TAFDPA
TAF AMD
KDPA 210658Z 2107/2206 19003KT 5SM BR FEW250
     FM210900 VRB02KT 2SM BR FEW250
     FM211230 17004KT P6SM FEW250
     FM211600 19011KT P6SM FEW045
     FM220100 18008KT P6SM FEW250=

USA.gov is the U.S. government's official web portal to all federal, state and local government web resources and services.